地図

経路データ

SID SEASON NUMBER BASIN SUBBASIN NAME ISO_TIME NATURE LAT LON WMO_WIND WMO_PRES WMO_AGENCY TRACK_TYPE DIST2LAND LANDFALL IFLAG USA_AGENCY USA_ATCF_ID USA_LAT USA_LON USA_RECORD USA_STATUS USA_WIND USA_PRES USA_SSHS USA_R34_NE USA_R34_SE USA_R34_SW USA_R34_NW USA_R50_NE USA_R50_SE USA_R50_SW USA_R50_NW USA_R64_NE USA_R64_SE USA_R64_SW USA_R64_NW USA_POCI USA_ROCI USA_RMW USA_EYE TOKYO_LAT TOKYO_LON TOKYO_GRADE TOKYO_WIND TOKYO_PRES TOKYO_R50_DIR TOKYO_R50_LONG TOKYO_R50_SHORT TOKYO_R30_DIR TOKYO_R30_LONG TOKYO_R30_SHORT TOKYO_LAND CMA_LAT CMA_LON CMA_CAT CMA_WIND CMA_PRES HKO_LAT HKO_LON HKO_CAT HKO_WIND HKO_PRES NEWDELHI_LAT NEWDELHI_LON NEWDELHI_GRADE NEWDELHI_WIND NEWDELHI_PRES NEWDELHI_CI NEWDELHI_DP NEWDELHI_POCI REUNION_LAT REUNION_LON REUNION_TYPE REUNION_WIND REUNION_PRES REUNION_TNUM REUNION_CI REUNION_RMW REUNION_R34_NE REUNION_R34_SE REUNION_R34_SW REUNION_R34_NW REUNION_R50_NE REUNION_R50_SE REUNION_R50_SW REUNION_R50_NW REUNION_R64_NE REUNION_R64_SE REUNION_R64_SW REUNION_R64_NW BOM_LAT BOM_LON BOM_TYPE BOM_WIND BOM_PRES BOM_TNUM BOM_CI BOM_RMW BOM_R34_NE BOM_R34_SE BOM_R34_SW BOM_R34_NW BOM_R50_NE BOM_R50_SE BOM_R50_SW BOM_R50_NW BOM_R64_NE BOM_R64_SE BOM_R64_SW BOM_R64_NW BOM_ROCI BOM_POCI BOM_EYE BOM_POS_METHOD BOM_PRES_METHOD NADI_LAT NADI_LON NADI_CAT NADI_WIND NADI_PRES WELLINGTON_LAT WELLINGTON_LON WELLINGTON_WIND WELLINGTON_PRES DS824_LAT DS824_LON DS824_STAGE DS824_WIND DS824_PRES TD9636_LAT TD9636_LON TD9636_STAGE TD9636_WIND TD9636_PRES TD9635_LAT TD9635_LON TD9635_WIND TD9635_PRES TD9635_ROCI NEUMANN_LAT NEUMANN_LON NEUMANN_CLASS NEUMANN_WIND NEUMANN_PRES MLC_LAT MLC_LON MLC_CLASS MLC_WIND MLC_PRES USA_GUST BOM_GUST BOM_GUST_PER REUNION_GUST REUNION_GUST_PER USA_SEAHGT USA_SEARAD_NE USA_SEARAD_SE USA_SEARAD_SW USA_SEARAD_NW STORM_SPEED STORM_DIR
1979333N12153 1979 113 WP MM NOT_NAMED 1979-11-29 06:00:00 TS 12.2000 152.700 main 1681 1681 __O___________ -1 12.2000 152.700 0 19 1005 11 82
1979333N12153 1979 113 WP MM NOT_NAMED 1979-11-29 09:00:00 TS 12.2703 153.232 main 1699 1699 __P___________ -1 12.2703 153.232 0 19 1005 10 78
1979333N12153 1979 113 WP MM NOT_NAMED 1979-11-29 12:00:00 TS 12.4000 153.700 main 1719 1719 __O___________ -1 12.4000 153.700 0 19 1005 9 65
1979333N12153 1979 113 WP MM NOT_NAMED 1979-11-29 15:00:00 TS 12.6399 154.053 main 1750 1750 __P___________ -1 12.6399 154.053 0 19 1005 7 69
1979333N12153 1979 113 WP MM NOT_NAMED 1979-11-29 18:00:00 TS 12.6571 154.386 main 1768 1768 O_O______OO___ jtwc_wp WP261979 12.2000 154.500 15 -1 13.0000 154.300 0 19 1005 12.2000 154.500 TC 15 12.2000 154.500 1 7 44
1979333N12153 1979 113 WP MM NOT_NAMED 1979-11-29 21:00:00 TS 13.1299 154.536 main 1814 1814 P_P______PP___ WP261979 12.9100 154.550 15 -1 13.4625 154.510 0 19 1005 12.9100 154.550 TC 15 12.9044 154.558 1 11 11
1979333N12153 1979 113 WP MM NOT_NAMED 1979-11-30 00:00:00 TS 13.7231 154.600 main 1882 1882 O_O______OO___ jtwc_wp WP261979 13.6000 154.600 15 -1 14.0000 154.600 0 19 1005 13.6000 154.600 TC 15 13.6000 154.600 1 12 3
1979333N12153 1979 113 WP MM NOT_NAMED 1979-11-30 03:00:00 TS 14.3342 154.607 main 1947 1947 P_P______PP___ WP261979 14.2575 154.637 15 -1 14.5425 154.545 0 21 1003 14.2575 154.637 TC 15 14.2795 154.609 1 12 358
1979333N12153 1979 113 WP MM NOT_NAMED 1979-11-30 06:00:00 TS 14.9601 154.541 main 2022 2022 O_O______OP___ jtwc_wp WP261979 14.9000 154.600 15 -1 15.1000 154.400 1 23 1002 14.9000 154.600 TC 15 14.9403 154.562 1 13 352
1979333N12153 1979 113 WP MM NOT_NAMED 1979-11-30 09:00:00 TS 15.5883 154.416 main 2085 2085 P_P______PP___ WP261979 15.5574 154.467 17 -1 15.6574 154.295 1 23 1002 15.5574 154.467 TC 17 15.5810 154.434 1 13 344
1979333N12153 1979 113 WP MM NOT_NAMED 1979-11-30 12:00:00 TS 16.2000 154.175 main 2148 2148 O_O______OO___ jtwc_wp WP261979 16.2000 154.200 20 -1 16.2000 154.100 1 23 1002 16.2000 154.200 TC 20 16.2000 154.200 1 13 333
1979333N12153 1979 113 WP MM NOT_NAMED 1979-11-30 15:00:00 TS 16.7733 153.787 main 2207 2205 P_P______PP___ WP261979 16.8150 153.795 22 -1 16.6701 153.737 1 26 1001 16.8150 153.795 TC 22 16.7931 153.821 1 14 324
1979333N12153 1979 113 WP MM NOT_NAMED 1979-11-30 18:00:00 TS 17.3415 153.310 main 2255 2255 O_O______OP___ jtwc_wp WP261979 17.4000 153.300 25 -1 17.2000 153.300 1 29 1000 17.4000 153.300 TC 25 17.3660 153.341 1 15 322
1979333N12153 1979 113 WP MM NOT_NAMED 1979-11-30 21:00:00 TS 17.9414 152.825 main 2286 2207 P_P______PP___ WP261979 17.9501 152.785 25 -1 17.9348 152.915 1 29 1000 17.9501 152.785 TC 25 17.9307 152.815 1 15 323
1979333N12153 1979 113 WP MM NOT_NAMED 1979-12-01 00:00:00 TS 18.5529 152.341 main 2192 2122 O_OO_____OO___ jtwc_wp WP261979 18.5000 152.300 25 -1 18.7000 152.500 1 29 1000 18.6000 152.200 TD 25 1004 18.5000 152.300 TC 25 18.5000 152.300 1 15 324
1979333N12153 1979 113 WP MM NOT_NAMED 1979-12-01 03:00:00 TS 19.1244 151.919 main 2122 2049 P_PP_____PP___ WP261979 19.0922 151.942 27 -1 19.3152 151.985 1 29 1000 19.0079 151.831 TD 25 1003 19.0922 151.942 TC 27 19.0562 151.849 1 14 327
1979333N12153 1979 113 WP MM NOT_NAMED 1979-12-01 06:00:00 TS 19.6947 151.542 main 2043 1970 O_OO_____OP___ jtwc_wp WP261979 19.7000 151.600 30 -1 19.9000 151.500 1 29 1000 19.5000 151.600 TD 25 1002 19.7000 151.600 TC 30 19.6251 151.424 1 13 330
1979333N12153 1979 113 WP MM NOT_NAMED 1979-12-01 09:00:00 TS 20.2892 151.211 main 1970 1896 P_PP_____PP___ WP261979 20.2701 151.150 30 -1 20.5348 151.162 1 29 1000 20.1395 151.558 TD 27 1002 20.2701 151.150 TC 30 20.2313 151.037 1 14 334
1979333N12153 1979 113 WP MM NOT_NAMED 1979-12-01 12:00:00 TS 20.9600 150.880 main 1887 1798 O_OO_____OO___ jtwc_wp WP261979 20.9000 150.700 30 -1 21.2000 150.900 1 29 1000 20.9000 151.400 TD 30 1002 20.9000 150.700 TC 30 20.9000 150.700 1 16 333
1979333N12153 1979 113 WP MM NOT_NAMED 1979-12-01 15:00:00 TS 21.7081 150.446 main 1793 1700 P_PP_____PP___ WP261979 21.6625 150.298 30 -1 21.8699 150.649 1 29 1001 21.7139 150.688 TD 30 1002 21.6625 150.298 TC 30 21.6315 150.300 1 17 334
1979333N12153 1979 113 WP MM NOT_NAMED 1979-12-01 18:00:00 TS 22.5258 150.073 main 1700 1613 O_OO_____OP___ jtwc_wp WP261979 22.5000 150.000 30 -1 22.6000 150.400 1 29 1002 22.6000 150.000 TD 30 1002 22.5000 150.000 TC 30 22.4291 149.966 1 18 341
1979333N12153 1979 113 WP MM NOT_NAMED 1979-12-01 21:00:00 TS 23.3628 149.847 main 1599 1524 P_PP_____PP___ WP261979 23.2823 149.796 30 -1 23.4351 150.012 1 26 1003 23.5269 149.856 TD 30 1002 23.2823 149.796 TC 30 23.2871 149.774 1 18 353
1979333N12153 1979 113 WP MM NOT_NAMED 1979-12-02 00:00:00 TS 24.2684 149.832 main 1515 1436 O_OO_____OO___ jtwc_wp WP261979 24.2000 149.800 30 -1 24.3000 149.800 1 23 1004 24.5000 150.000 TD 30 1002 24.2000 149.800 TC 30 24.2000 149.800 1 20 5
1979333N12153 1979 113 WP MM NOT_NAMED 1979-12-02 03:00:00 TS 25.3376 150.053 main 1442 1382 P_PP_____PP___ WP261979 25.4645 150.015 30 -1 25.1820 149.991 1 21 1006 25.4953 150.235 TD 30 1002 25.4645 150.015 TC 30 25.1607 150.099 1 22 17
1979333N12153 1979 113 WP MM NOT_NAMED 1979-12-02 06:00:00 TS 26.3747 150.530 main 1373 1359 O_OO_____OP___ jtwc_wp WP261979 26.7000 150.500 30 -1 25.9000 150.500 0 19 1008 26.5000 150.500 TD 30 1002 26.7000 150.500 TC 30 26.1571 150.629 1 21 30
1979333N12153 1979 113 WP MM NOT_NAMED 1979-12-02 09:00:00 TS 27.1541 151.246 main 1357 1357 P_P______PP___ WP261979 27.5714 151.231 22 -1 26.2986 151.203 0 19 1008 TD 27.5714 151.231 TC 22 27.1749 151.320 1 20 44
1979333N12153 1979 113 WP MM NOT_NAMED 1979-12-02 12:00:00 TS 27.7750 152.075 main 1374 O_O______OO___ jtwc_wp WP261979 28.2000 152.100 15 -1 26.5000 152.000 0 19 1008 28.2000 152.100 TC 15 28.2000 152.100 5 19 50

デジタル台風データ・検索

IBTrACS Databaseについて

本データベースは、米国NOAAが公開する1842年以降の世界の熱帯低気圧のベストトラックデータアーカイブInternational Best Track Archive for Climate Stewardship (IBTrACS)を、ウェブで閲覧しやすい形式に変換したものです。

最終更新日:2021-10-21